Terminal Aerodrome Forecast
Issued by NWS

Current Version | Previous Version | Text Only | Print | Product List | Glossary On
Versions: 1 2 3 4 5 6 7 8 9 10 11 12 13 14 15 16 17 18
000
FTUS45 KABQ 011800 AAA
TAFROW
TAF AMD
KROW 011807Z 0118/0218 16006KT P6SM OVC003
      TEMPO 0118/0120 3SM BR VV002
     FM012000 14006KT P6SM BKN007
     FM012300 15008KT P6SM SCT009
     FM020200 08007KT P6SM OVC004
      TEMPO 0209/0213 3SM -FZDZ BR=

USA.gov is the U.S. government's official web portal to all federal, state and local government web resources and services.